createdAt,value
2023-01-28T00:02:54.934Z,100896.41
2023-01-28T00:07:58.419Z,100891.89
2023-01-28T00:13:01.934Z,100891.02
2023-01-28T00:18:05.960Z,100885.73
2023-01-28T00:23:09.370Z,100886.35
2023-01-28T00:28:13.296Z,100883.85
2023-01-28T00:33:16.712Z,100884.86
2023-01-28T00:38:20.328Z,100884.55
2023-01-28T00:43:23.844Z,100887.41
2023-01-28T00:48:27.460Z,100885.52
2023-01-28T00:53:31.795Z,100889.73
2023-01-28T00:58:35.720Z,100889.52
2023-01-28T01:03:39.646Z,100888.21
2023-01-28T01:08:50.454Z,100884.17
2023-01-28T01:13:56.354Z,100880.62
2023-01-28T01:19:00.575Z,100875.39
2023-01-28T01:24:04.431Z,100881.38
2023-01-28T01:29:10.169Z,100884.40
2023-01-28T01:34:13.647Z,100881.83
2023-01-28T01:39:17.951Z,100882.95
2023-01-28T01:44:52.830Z,100881.82
2023-01-28T01:49:57.266Z,100872.31
2023-01-28T01:55:02.236Z,100863.80
2023-01-28T02:00:08.284Z,100860.86
2023-01-28T02:05:16.137Z,100858.41
2023-01-28T02:10:20.138Z,100862.04
2023-01-28T02:15:25.890Z,100856.44
2023-01-28T02:20:57.165Z,100860.92
2023-01-28T02:26:38.261Z,100864.26
2023-01-28T02:31:53.940Z,100866.44
2023-01-28T02:37:09.050Z,100859.13
2023-01-28T02:42:35.712Z,100852.21
2023-01-28T02:47:57.864Z,100856.58
2023-01-28T02:53:32.094Z,100854.98
2023-01-28T02:58:38.485Z,100851.55
2023-01-28T03:03:57.251Z,100846.21
2023-01-28T03:09:24.501Z,100855.86
2023-01-28T03:14:49.132Z,100850.23
2023-01-28T03:20:12.418Z,100848.03
2023-01-28T03:25:36.924Z,100849.69
2023-01-28T03:31:04.714Z,100847.84
2023-01-28T03:36:27.987Z,100845.13
2023-01-28T03:41:31.601Z,100844.65
2023-01-28T03:46:38.323Z,100849.84
2023-01-28T03:51:41.809Z,100854.93
2023-01-28T03:56:45.331Z,100851.45
2023-01-28T04:01:50.975Z,100849.63
2023-01-28T04:06:55.627Z,100856.15
2023-01-28T04:11:59.353Z,100853.98
2023-01-28T04:17:03.091Z,100844.48
2023-01-28T04:22:10.377Z,100842.38
2023-01-28T04:27:13.787Z,100841.02
2023-01-28T04:32:17.199Z,100844.06
2023-01-28T04:37:20.723Z,100844.75
2023-01-28T04:42:24.131Z,100846.02
2023-01-28T04:47:27.649Z,100851.06
2023-01-28T04:52:31.163Z,100863.30
2023-01-28T04:57:34.575Z,100859.50
2023-01-28T05:02:38.094Z,100863.23
2023-01-28T05:07:41.705Z,100869.59
2023-01-28T05:12:45.938Z,100875.23
2023-01-28T05:17:49.452Z,100871.79
2023-01-28T05:22:53.282Z,100875.70
2023-01-28T05:27:56.689Z,100879.98
2023-01-28T05:33:00.306Z,100879.77
2023-01-28T05:38:04.344Z,100879.89
2023-01-28T05:43:07.852Z,100879.67
2023-01-28T05:48:11.368Z,100885.02
2023-01-28T05:53:15.003Z,100892.16
2023-01-28T05:58:18.606Z,100883.30
2023-01-28T06:03:22.016Z,100886.55
2023-01-28T06:08:25.549Z,100889.67
2023-01-28T06:13:29.044Z,100902.13
2023-01-28T06:18:32.663Z,100905.12
2023-01-28T06:23:36.383Z,100900.31
2023-01-28T06:28:39.899Z,100906.05
2023-01-28T06:33:43.417Z,100904.01
2023-01-28T06:38:47.237Z,100902.39
2023-01-28T06:43:50.651Z,100905.05
2023-01-28T06:48:54.269Z,100913.41
2023-01-28T06:53:57.788Z,100910.00
2023-01-28T06:59:01.401Z,100912.41
2023-01-28T07:04:05.123Z,100913.17
2023-01-28T07:09:08.637Z,100915.92
2023-01-28T07:14:12.468Z,100916.58
2023-01-28T07:19:15.872Z,100916.00
2023-01-28T07:24:19.571Z,100919.55
2023-01-28T07:29:23.314Z,100925.39
2023-01-28T07:34:26.932Z,100929.05
2023-01-28T07:39:31.020Z,100934.06
2023-01-28T07:44:36.112Z,100938.30
2023-01-28T07:49:42.313Z,100940.19
2023-01-28T07:54:46.768Z,100932.91
2023-01-28T07:59:53.915Z,100936.31
2023-01-28T08:04:59.734Z,100942.17
2023-01-28T08:10:03.724Z,100931.46
2023-01-28T08:15:08.262Z,100932.95
2023-01-28T08:20:12.603Z,100931.51
2023-01-28T08:25:16.525Z,100942.74
2023-01-28T08:30:20.529Z,100936.96
2023-01-28T08:35:25.161Z,100937.87
2023-01-28T08:40:29.530Z,100941.90
2023-01-28T08:45:33.145Z,100938.37
2023-01-28T08:50:40.253Z,100941.95
2023-01-28T08:55:44.477Z,100941.27
2023-01-28T09:00:49.121Z,100929.95
2023-01-28T09:05:52.636Z,100925.98
2023-01-28T09:11:00.402Z,100923.42
2023-01-28T09:16:07.311Z,100926.06
2023-01-28T09:21:10.975Z,100924.48
2023-01-28T09:26:14.592Z,100921.27
2023-01-28T09:31:18.299Z,100922.31
2023-01-28T09:36:21.990Z,100924.52
2023-01-28T09:41:28.506Z,100930.41
2023-01-28T09:46:37.609Z,100923.04
2023-01-28T09:51:51.830Z,100915.70
2023-01-28T09:57:14.602Z,100907.62
2023-01-28T10:02:33.469Z,100909.33
2023-01-28T10:07:46.501Z,100907.88
2023-01-28T10:13:21.986Z,100915.16
2023-01-28T10:18:39.100Z,100915.14
2023-01-28T10:23:53.416Z,100926.97
2023-01-28T10:29:01.393Z,100923.70
2023-01-28T10:34:05.392Z,100921.81
2023-01-28T10:39:17.330Z,100920.50
2023-01-28T10:44:27.171Z,100912.77
2023-01-28T10:49:33.292Z,100909.63
2023-01-28T10:54:36.680Z,100911.42
2023-01-28T10:59:42.062Z,100904.41
2023-01-28T11:04:46.380Z,100900.27
2023-01-28T11:09:51.835Z,100898.57
2023-01-28T11:15:00.583Z,100893.05
2023-01-28T11:20:18.988Z,100893.83
2023-01-28T11:25:25.215Z,100894.05
2023-01-28T11:30:41.879Z,100892.63
2023-01-28T11:36:05.225Z,100886.39
2023-01-28T11:41:16.318Z,100882.70
2023-01-28T11:46:22.446Z,100881.24
2023-01-28T11:51:47.102Z,100879.08
2023-01-28T11:56:57.886Z,100883.52
2023-01-28T12:02:13.076Z,100874.61
2023-01-28T12:07:29.085Z,100880.93
2023-01-28T12:12:41.409Z,100869.59
2023-01-28T12:17:47.789Z,100862.05
2023-01-28T12:23:05.845Z,100863.54
2023-01-28T12:28:30.868Z,100863.09
2023-01-28T12:33:45.545Z,100860.39
2023-01-28T12:39:02.472Z,100848.40
2023-01-28T12:44:12.441Z,100840.52
2023-01-28T12:49:18.721Z,100843.16
2023-01-28T12:54:28.181Z,100847.11
2023-01-28T12:59:48.894Z,100838.11
2023-01-28T13:05:04.021Z,100837.98
2023-01-28T13:10:33.098Z,100835.97
2023-01-28T13:15:42.044Z,100832.95
2023-01-28T13:20:50.500Z,100836.66
2023-01-28T13:25:56.258Z,100829.36
2023-01-28T13:31:07.077Z,100825.55
2023-01-28T13:36:19.673Z,100819.49
2023-01-28T13:41:23.169Z,100818.40
2023-01-28T13:46:29.149Z,100817.48
2023-01-28T13:51:36.037Z,100829.61
2023-01-28T13:57:01.489Z,100838.90
2023-01-28T14:02:40.416Z,100834.84
2023-01-28T14:08:05.840Z,100824.66
2023-01-28T14:13:25.684Z,100824.80
2023-01-28T14:18:43.293Z,100828.92
2023-01-28T14:23:52.552Z,100828.50
2023-01-28T14:29:06.085Z,100830.39
2023-01-28T14:34:33.063Z,100828.38
2023-01-28T14:39:47.216Z,100829.70
2023-01-28T14:44:56.467Z,100827.75
2023-01-28T14:50:22.730Z,100832.45
2023-01-28T14:55:34.218Z,100831.08
2023-01-28T15:00:39.698Z,100823.25
2023-01-28T15:05:43.092Z,100820.92
2023-01-28T15:10:46.714Z,100806.14
2023-01-28T15:15:50.943Z,100790.75
2023-01-28T15:20:56.426Z,100795.19
2023-01-28T15:26:04.754Z,100794.33
2023-01-28T15:31:26.444Z,100784.63
2023-01-28T15:36:31.651Z,100771.46
2023-01-28T15:41:41.700Z,100789.23
2023-01-28T15:46:45.314Z,100787.20
2023-01-28T15:51:53.231Z,100779.89
2023-01-28T15:56:57.261Z,100780.28
2023-01-28T16:02:19.308Z,100774.08
2023-01-28T16:07:23.551Z,100777.46
2023-01-28T16:12:27.573Z,100790.75
2023-01-28T16:17:42.654Z,100789.81
2023-01-28T16:22:46.376Z,100801.48
2023-01-28T16:27:50.212Z,100816.76
2023-01-28T16:32:58.500Z,100814.05
2023-01-28T16:38:02.155Z,100817.42
2023-01-28T16:43:05.766Z,100807.67
2023-01-28T16:48:09.594Z,100813.58
2023-01-28T16:53:29.176Z,100814.68
2023-01-28T16:58:32.595Z,100823.39
2023-01-28T17:03:36.135Z,100830.13
2023-01-28T17:08:42.908Z,100832.45
2023-01-28T17:13:46.418Z,100827.13
2023-01-28T17:18:54.511Z,100821.98
2023-01-28T17:23:59.276Z,100818.86
2023-01-28T17:29:05.671Z,100815.47
2023-01-28T17:34:11.845Z,100802.60
2023-01-28T17:39:15.261Z,100793.18
2023-01-28T17:44:19.879Z,100785.35
2023-01-28T17:49:23.422Z,100784.23
2023-01-28T17:54:27.150Z,100784.07
2023-01-28T17:59:30.751Z,100774.11
2023-01-28T18:04:41.536Z,100778.36
2023-01-28T18:09:47.926Z,100781.23
2023-01-28T18:14:51.535Z,100792.61
2023-01-28T18:19:55.058Z,100792.18
2023-01-28T18:24:58.784Z,100796.05
2023-01-28T18:30:02.493Z,100793.39
2023-01-28T18:35:06.902Z,100802.10
2023-01-28T18:40:10.545Z,100794.09
2023-01-28T18:45:14.215Z,100802.20
2023-01-28T18:50:18.095Z,100788.85
2023-01-28T18:55:21.946Z,100791.91
2023-01-28T19:00:26.045Z,100798.27
2023-01-28T19:05:34.375Z,100789.91
2023-01-28T19:10:37.887Z,100778.00
2023-01-28T19:15:41.402Z,100780.29
2023-01-28T19:20:44.984Z,100775.86
2023-01-28T19:25:48.637Z,100783.57
2023-01-28T19:30:52.475Z,100789.33
2023-01-28T19:36:00.585Z,100776.23
2023-01-28T19:41:07.850Z,100789.67
2023-01-28T19:46:16.233Z,100776.43
2023-01-28T19:51:20.665Z,100766.21
2023-01-28T19:56:25.298Z,100756.70
2023-01-28T20:01:30.444Z,100760.47
2023-01-28T20:06:35.506Z,100758.48
2023-01-28T20:11:39.017Z,100767.42
2023-01-28T20:16:42.742Z,100766.50
2023-01-28T20:21:47.177Z,100764.02
2023-01-28T20:26:50.895Z,100764.34
2023-01-28T20:32:13.680Z,100758.69
2023-01-28T20:37:19.327Z,100760.38
2023-01-28T20:42:22.859Z,100755.95
2023-01-28T20:47:26.432Z,100750.63
2023-01-28T20:52:30.592Z,100744.69
2023-01-28T20:57:34.002Z,100740.73
2023-01-28T21:03:32.745Z,100739.91
2023-01-28T21:08:40.019Z,100717.20
2023-01-28T21:13:43.533Z,100725.66
2023-01-28T21:18:47.363Z,100722.52
2023-01-28T21:23:51.033Z,100730.59
2023-01-28T21:28:56.335Z,100715.24
2023-01-28T21:34:01.905Z,100721.95
2023-01-28T21:39:05.926Z,100727.36
2023-01-28T21:44:11.997Z,100724.80
2023-01-28T21:49:15.419Z,100723.05
2023-01-28T21:54:19.943Z,100718.66
2023-01-28T21:59:29.106Z,100720.44
2023-01-28T22:04:35.731Z,100708.46
2023-01-28T22:09:40.125Z,100714.73
2023-01-28T22:14:44.177Z,100716.11
2023-01-28T22:19:50.429Z,100719.74
2023-01-28T22:24:53.949Z,100713.41
2023-01-28T22:29:57.768Z,100700.83
2023-01-28T22:35:02.305Z,100704.52
2023-01-28T22:40:06.463Z,100697.23
2023-01-28T22:45:10.885Z,100699.34
2023-01-28T22:50:14.471Z,100690.30
2023-01-28T22:55:18.942Z,100686.77
2023-01-28T23:00:28.174Z,100676.81
2023-01-28T23:05:31.593Z,100666.95
2023-01-28T23:10:50.285Z,100654.52
2023-01-28T23:16:13.136Z,100647.92
2023-01-28T23:21:41.123Z,100638.35
2023-01-28T23:26:46.072Z,100618.87
2023-01-28T23:31:52.735Z,100604.42
2023-01-28T23:36:56.274Z,100603.73
2023-01-28T23:42:00.108Z,100616.01
2023-01-28T23:47:03.763Z,100616.73
2023-01-28T23:52:08.053Z,100608.92
2023-01-28T23:57:11.566Z,100598.80
